createdAt,value
2022-08-23T00:01:26.765Z,52.23
2022-08-23T00:06:35.783Z,52.33
2022-08-23T00:11:47.228Z,51.57
2022-08-23T00:16:53.845Z,52.00
2022-08-23T00:21:58.955Z,51.40
2022-08-23T00:27:15.734Z,51.90
2022-08-23T00:32:30.051Z,51.83
2022-08-23T00:37:35.229Z,52.20
2022-08-23T00:43:21.447Z,51.97
2022-08-23T00:48:27.225Z,51.17
2022-08-23T00:53:36.343Z,52.03
2022-08-23T00:58:42.752Z,51.13
2022-08-23T01:04:04.330Z,51.48
2022-08-23T01:09:00.873Z,51.63
2022-08-23T01:14:17.840Z,51.23
2022-08-23T01:19:32.888Z,51.80
2022-08-23T01:25:06.078Z,51.67
2022-08-23T01:29:46.412Z,51.67
2022-08-23T01:34:51.970Z,51.10
2022-08-23T01:39:57.153Z,50.77
2022-08-23T01:45:02.825Z,52.30
2022-08-23T01:50:10.126Z,51.30
2022-08-23T01:55:15.620Z,51.43
2022-08-23T02:00:23.687Z,51.17
2022-08-23T02:05:31.531Z,51.50
2022-08-23T02:10:39.023Z,51.23
2022-08-23T02:15:47.434Z,51.07
2022-08-23T02:20:54.266Z,51.43
2022-08-23T02:25:59.185Z,51.13
2022-08-23T02:31:04.999Z,51.20
2022-08-23T02:36:12.683Z,51.47
2022-08-23T02:46:23.488Z,51.27
2022-08-23T02:51:29.354Z,51.05
2022-08-23T02:56:35.678Z,50.73
2022-08-23T03:01:41.087Z,50.60
2022-08-23T03:06:46.113Z,50.63
2022-08-23T03:11:51.438Z,51.60
2022-08-23T03:16:58.403Z,51.00
2022-08-23T03:22:04.520Z,52.03
2022-08-23T03:32:15.458Z,50.95
2022-08-23T03:37:21.241Z,50.93
2022-08-23T03:42:30.804Z,51.40
2022-08-23T03:47:33.484Z,51.50
2022-08-23T03:52:38.840Z,51.27
2022-08-23T03:57:44.721Z,51.87
2022-08-23T04:02:51.129Z,51.60
2022-08-23T04:07:56.984Z,51.67
2022-08-23T04:13:02.713Z,52.10
2022-08-23T04:18:08.041Z,51.73
2022-08-23T04:23:14.536Z,51.47
2022-08-23T04:28:20.396Z,51.48
2022-08-23T04:33:26.465Z,51.48
2022-08-23T04:38:32.262Z,51.40
2022-08-23T04:43:37.174Z,51.67
2022-08-23T04:48:43.408Z,51.77
2022-08-23T04:53:48.635Z,51.50
2022-08-23T04:58:53.945Z,52.73
2022-08-23T05:04:00.223Z,51.73
2022-08-23T05:14:12.250Z,52.73
2022-08-23T05:19:17.564Z,53.37
2022-08-23T05:24:24.309Z,53.80
2022-08-23T05:29:29.640Z,54.05
2022-08-23T05:34:34.614Z,54.83
2022-08-23T05:39:39.580Z,54.37
2022-08-23T05:44:46.044Z,53.43
2022-08-23T05:54:55.524Z,53.98
2022-08-23T06:00:01.769Z,54.07
2022-08-23T06:05:07.411Z,54.42
2022-08-23T06:10:16.226Z,53.73
2022-08-23T06:15:20.664Z,52.97
2022-08-23T06:20:26.341Z,53.20
2022-08-23T06:25:32.667Z,53.23
2022-08-23T06:30:40.182Z,53.90
2022-08-23T06:35:45.187Z,54.10
2022-08-23T06:40:50.578Z,53.50
2022-08-23T06:45:58.245Z,53.20
2022-08-23T06:51:03.412Z,53.30
2022-08-23T06:56:11.936Z,52.80
2022-08-23T07:01:44.813Z,52.80
2022-08-23T07:06:32.608Z,52.87
2022-08-23T07:11:37.939Z,52.90
2022-08-23T07:16:46.200Z,52.93
2022-08-23T07:21:51.336Z,52.97
2022-08-23T07:26:56.693Z,53.67
2022-08-23T07:32:01.687Z,53.93
2022-08-23T07:37:11.592Z,53.70
2022-08-23T07:42:23.339Z,53.03
2022-08-23T07:47:20.552Z,53.10
2022-08-23T07:52:26.034Z,52.10
2022-08-23T07:57:31.999Z,52.57
2022-08-23T08:02:38.503Z,52.67
2022-08-23T08:07:45.115Z,52.10
2022-08-23T08:12:50.486Z,52.60
2022-08-23T08:17:55.816Z,52.73
2022-08-23T08:23:00.934Z,52.97
2022-08-23T08:28:06.235Z,52.73
2022-08-23T08:33:15.198Z,52.48
2022-08-23T08:38:21.447Z,52.63
2022-08-23T08:43:33.874Z,52.88
2022-08-23T08:48:45.956Z,52.97
2022-08-23T08:53:53.058Z,52.83
2022-08-23T08:59:01.012Z,52.67
2022-08-23T09:04:08.130Z,53.23
2022-08-23T09:09:35.203Z,52.73
2022-08-23T09:14:50.448Z,52.90
2022-08-23T09:20:01.735Z,53.23
2022-08-23T09:25:12.733Z,52.73
2022-08-23T09:30:20.880Z,53.83
2022-08-23T09:35:27.782Z,53.70
2022-08-23T09:40:41.875Z,54.33
2022-08-23T09:45:53.503Z,54.20
2022-08-23T09:51:08.993Z,54.35
2022-08-23T09:56:17.617Z,55.37
2022-08-23T10:01:27.093Z,55.03
2022-08-23T10:06:38.280Z,54.93
2022-08-23T10:11:46.414Z,55.60
2022-08-23T10:17:03.016Z,55.30
2022-08-23T10:22:23.174Z,56.18
2022-08-23T10:28:03.959Z,55.93
2022-08-23T10:33:19.443Z,56.23
2022-08-23T10:38:30.748Z,56.47
2022-08-23T10:44:09.551Z,56.17
2022-08-23T10:49:16.815Z,56.03
2022-08-23T10:54:26.767Z,55.30
2022-08-23T10:59:35.977Z,55.40
2022-08-23T11:05:07.813Z,55.50
2022-08-23T11:10:29.200Z,55.93
2022-08-23T11:15:45.353Z,56.27
2022-08-23T11:20:54.216Z,55.67
2022-08-23T11:26:02.613Z,55.87
2022-08-23T11:31:15.027Z,55.57
2022-08-23T11:36:26.551Z,55.12
2022-08-23T11:41:34.921Z,54.33
2022-08-23T11:46:55.893Z,55.45
2022-08-23T11:52:27.299Z,55.43
2022-08-23T11:57:54.489Z,57.90
2022-08-23T12:03:31.963Z,56.58
2022-08-23T12:08:49.846Z,55.55
2022-08-23T12:13:58.156Z,54.73
2022-08-23T12:19:07.912Z,54.67
2022-08-23T12:24:21.279Z,54.20
2022-08-23T12:29:33.061Z,54.23
2022-08-23T12:34:42.290Z,54.00
2022-08-23T12:39:53.641Z,53.40
2022-08-23T12:45:20.657Z,53.57
2022-08-23T12:50:39.162Z,53.40
2022-08-23T12:55:50.473Z,53.50
2022-08-23T13:00:59.727Z,53.53
2022-08-23T13:06:08.745Z,53.68
2022-08-23T13:11:19.565Z,53.42
2022-08-23T13:16:39.453Z,52.43
2022-08-23T13:21:46.342Z,52.67
2022-08-23T13:32:04.261Z,52.73
2022-08-23T13:37:22.559Z,52.90
2022-08-23T13:42:47.247Z,53.55
2022-08-23T13:48:10.193Z,52.73
2022-08-23T13:53:16.716Z,52.93
2022-08-23T13:58:33.388Z,53.17
2022-08-23T14:03:38.980Z,53.15
2022-08-23T14:08:45.095Z,53.35
2022-08-23T14:13:50.648Z,53.20
2022-08-23T14:24:03.132Z,53.33
2022-08-23T14:29:08.915Z,53.33
2022-08-23T14:34:16.161Z,53.87
2022-08-23T14:39:22.359Z,53.75
2022-08-23T14:44:33.290Z,53.42
2022-08-23T14:49:36.078Z,53.97
2022-08-23T14:54:42.375Z,53.50
2022-08-23T15:04:53.426Z,52.90
2022-08-23T15:09:59.127Z,53.80
2022-08-23T15:15:09.209Z,53.45
2022-08-23T15:20:16.830Z,53.23
2022-08-23T15:25:22.613Z,53.23
2022-08-23T15:35:37.961Z,52.97
2022-08-23T15:40:45.364Z,53.47
2022-08-23T15:45:51.249Z,55.33
2022-08-23T15:50:59.096Z,59.73
2022-08-23T15:56:08.529Z,68.12
2022-08-23T16:01:14.658Z,56.53
2022-08-23T16:06:19.833Z,55.47
2022-08-23T16:11:25.475Z,54.93
2022-08-23T16:16:36.820Z,54.53
2022-08-23T16:21:42.913Z,54.80
2022-08-23T16:26:50.594Z,54.40
2022-08-23T16:31:57.020Z,54.67
2022-08-23T16:37:06.518Z,54.48
2022-08-23T16:42:13.231Z,54.93
2022-08-23T16:47:19.137Z,55.58
2022-08-23T16:52:24.835Z,56.93
2022-08-23T16:57:31.946Z,55.67
2022-08-23T17:02:39.257Z,53.90
2022-08-23T17:07:45.493Z,53.70
2022-08-23T17:12:54.089Z,54.05
2022-08-23T17:18:01.355Z,53.50
2022-08-23T17:23:08.001Z,54.07
2022-08-23T17:28:12.945Z,53.15
2022-08-23T17:33:18.906Z,53.07
2022-08-23T17:38:24.160Z,53.80
2022-08-23T17:43:30.002Z,53.90
2022-08-23T17:53:42.836Z,53.60
2022-08-23T17:58:48.406Z,53.48
2022-08-23T18:03:54.005Z,54.03
2022-08-23T18:09:02.568Z,54.20
2022-08-23T18:14:08.537Z,53.93
2022-08-23T18:19:16.968Z,54.50
2022-08-23T18:24:22.747Z,53.70
2022-08-23T18:30:21.440Z,54.73
2022-08-23T18:35:30.533Z,54.47
2022-08-23T18:40:38.437Z,54.47
2022-08-23T18:45:46.558Z,55.03
2022-08-23T18:50:53.255Z,54.87
2022-08-23T18:55:59.891Z,56.13
2022-08-23T19:01:27.171Z,56.87
2022-08-23T19:06:33.588Z,56.90
2022-08-23T19:11:40.401Z,57.20
2022-08-23T19:16:48.443Z,57.57
2022-08-23T19:21:54.718Z,54.47
2022-08-23T19:26:59.778Z,55.57
2022-08-23T19:32:06.804Z,56.90
2022-08-23T19:37:20.513Z,58.67
2022-08-23T19:42:21.270Z,59.37
2022-08-23T19:47:28.758Z,59.87
2022-08-23T19:52:35.931Z,63.57
2022-08-23T19:57:41.817Z,61.50
2022-08-23T20:02:49.409Z,61.10
2022-08-23T20:07:56.145Z,58.13
2022-08-23T20:18:08.640Z,58.25
2022-08-23T20:23:33.229Z,57.30
2022-08-23T20:28:40.338Z,56.63
2022-08-23T20:33:47.814Z,56.50
2022-08-23T20:38:54.032Z,56.90
2022-08-23T20:49:04.998Z,56.30
2022-08-23T20:54:11.757Z,59.40
2022-08-23T20:59:18.325Z,57.78
2022-08-23T21:04:29.964Z,57.07
2022-08-23T21:09:30.911Z,57.50
2022-08-23T21:14:36.301Z,56.20
2022-08-23T21:19:43.731Z,56.47
2022-08-23T21:24:49.750Z,56.20
2022-08-23T21:29:55.166Z,54.77
2022-08-23T21:35:02.656Z,55.90
2022-08-23T21:40:09.195Z,58.33
2022-08-23T21:45:14.584Z,58.57
2022-08-23T21:50:20.100Z,57.07
2022-08-23T21:55:36.020Z,56.02
2022-08-23T22:00:35.292Z,55.90
2022-08-23T22:05:43.924Z,55.85
2022-08-23T22:10:57.567Z,55.77
2022-08-23T22:15:57.283Z,55.53
2022-08-23T22:26:08.425Z,54.63
2022-08-23T22:31:16.559Z,55.10
2022-08-23T22:36:24.879Z,57.00
2022-08-23T22:41:31.664Z,56.33
2022-08-23T22:46:38.526Z,56.90
2022-08-23T22:51:44.317Z,56.43
2022-08-23T22:56:52.261Z,56.83
2022-08-23T23:01:58.787Z,56.20
2022-08-23T23:07:04.786Z,56.87
2022-08-23T23:12:10.473Z,55.30
2022-08-23T23:17:16.688Z,55.88
2022-08-23T23:22:22.792Z,55.70
2022-08-23T23:27:28.021Z,55.23
2022-08-23T23:32:34.972Z,55.33
2022-08-23T23:37:40.176Z,55.23
2022-08-23T23:42:45.447Z,55.23
2022-08-23T23:47:51.160Z,56.50
2022-08-23T23:52:57.051Z,56.53
2022-08-23T23:58:02.698Z,56.03
